Time;durP1;ratioP1;P1;durP2;ratioP2;P2;SDS_P1;SDS_P2;PMS_P1;PMS_P2;Temp;Humidity;BMP_temperature;BMP_pressure;BME280_temperature;BME280_humidity;BME280_pressure;Samples;Min_cycle;Max_cycle;Signal;HPM_P1;HPM_P2
2022/05/13 00:01:59;;;;;;;48.45;13.50;;;18.40;99.90;;;;;;4955621;28;20388;-63
2022/05/13 00:04:26;;;;;;;46.40;13.10;;;18.50;99.90;;;;;;4960547;28;20387;-64
2022/05/13 00:06:53;;;;;;;40.67;12.45;;;18.60;99.90;;;;;;4959745;28;20030;-63
2022/05/13 00:09:22;;;;;;;38.03;12.77;;;18.60;99.90;;;;;;4952594;28;20168;-63
2022/05/13 00:11:49;;;;;;;39.60;12.75;;;18.60;99.90;;;;;;4960675;28;20031;-63
2022/05/13 00:14:16;;;;;;;51.00;14.15;;;18.70;99.90;;;;;;4957497;28;20023;-65
2022/05/13 00:16:43;;;;;;;46.83;13.73;;;18.70;99.90;;;;;;4956484;28;20403;-64
2022/05/13 00:19:11;;;;;;;52.63;15.43;;;18.70;99.90;;;;;;4957859;28;20030;-64
2022/05/13 00:21:38;;;;;;;42.72;14.32;;;18.70;99.60;;;;;;4960809;28;20027;-65
2022/05/13 00:24:06;;;;;;;39.60;12.85;;;18.70;99.50;;;;;;4958108;28;20019;-65
2022/05/13 00:26:34;;;;;;;38.63;12.95;;;18.60;99.30;;;;;;4969369;28;20027;-65
2022/05/13 00:29:01;;;;;;;45.95;15.00;;;18.60;99.40;;;;;;4971426;28;20031;-64
2022/05/13 00:31:28;;;;;;;38.85;13.52;;;18.60;99.40;;;;;;4956037;28;20061;-65
2022/05/13 00:33:57;;;;;;;35.00;12.63;;;18.60;99.30;;;;;;4955382;28;20107;-64
2022/05/13 00:36:24;;;;;;;33.67;12.82;;;18.60;99.40;;;;;;4963078;28;20027;-64
2022/05/13 00:38:51;;;;;;;29.13;11.75;;;18.60;99.10;;;;;;4975174;28;20026;-64
2022/05/13 00:41:19;;;;;;;30.85;11.65;;;18.50;98.80;;;;;;4975687;28;20105;-64
2022/05/13 00:43:53;;;;;;;36.47;12.65;;;18.60;99.20;;;;;;4971133;28;20231;-65
2022/05/13 00:46:22;;;;;;;34.67;13.35;;;18.60;99.40;;;;;;5020496;28;20050;-63
2022/05/13 00:48:49;;;;;;;30.23;11.75;;;18.60;99.40;;;;;;5007724;28;20133;-64
2022/05/13 00:51:24;;;;;;;38.47;12.07;;;18.60;99.30;;;;;;5052586;28;20092;-65
2022/05/13 00:53:51;;;;;;;32.05;12.15;;;18.70;99.50;;;;;;4962173;28;20511;-65
2022/05/13 00:56:19;;;;;;;26.77;11.70;;;18.70;99.40;;;;;;5018231;28;20015;-65
2022/05/13 00:58:49;;;;;;;30.60;11.25;;;18.70;99.20;;;;;;4970031;28;20050;-65
2022/05/13 01:01:16;;;;;;;26.35;10.43;;;18.70;98.90;;;;;;4974756;28;20043;-65
2022/05/13 01:03:44;;;;;;;29.60;10.65;;;18.70;98.80;;;;;;4971351;28;20360;-64
2022/05/13 01:06:15;;;;;;;31.75;11.35;;;18.60;98.70;;;;;;5010758;28;20032;-64
2022/05/13 01:08:42;;;;;;;25.55;11.10;;;18.70;98.90;;;;;;4959828;28;20027;-64
2022/05/13 01:11:15;;;;;;;25.55;10.63;;;18.70;98.90;;;;;;5039976;28;20024;-64
2022/05/13 01:13:46;;;;;;;21.48;9.93;;;18.70;98.80;;;;;;4983206;28;20520;-64
2022/05/13 01:16:13;;;;;;;25.08;10.93;;;18.80;98.60;;;;;;5025456;28;20026;-64
2022/05/13 01:18:43;;;;;;;26.55;11.60;;;18.80;98.60;;;;;;4966372;28;20061;-64
2022/05/13 01:21:15;;;;;;;25.10;10.15;;;18.80;98.50;;;;;;4969944;28;20035;-64
2022/05/13 01:23:44;;;;;;;26.73;11.48;;;18.80;98.30;;;;;;4970866;28;20133;-64
2022/05/13 01:26:30;;;;;;;23.20;10.68;;;18.90;98.50;;;;;;4959789;28;20050;-63
2022/05/13 01:28:58;;;;;;;24.38;11.02;;;19.00;98.30;;;;;;5002581;28;20060;-65
2022/05/13 01:31:32;;;;;;;22.08;10.07;;;19.10;98.50;;;;;;4983380;28;20062;-64
2022/05/13 01:34:07;;;;;;;26.02;11.60;;;19.20;98.30;;;;;;5007099;28;20024;-64
2022/05/13 01:36:36;;;;;;;22.77;11.82;;;19.20;97.80;;;;;;5026942;28;20355;-65
2022/05/13 01:39:04;;;;;;;17.58;9.48;;;19.30;98.00;;;;;;5042106;28;20052;-64
2022/05/13 01:41:31;;;;;;;18.65;9.10;;;19.40;97.80;;;;;;5000286;28;20018;-64
2022/05/13 01:43:59;;;;;;;17.55;9.07;;;19.50;97.40;;;;;;4968468;28;20055;-63
2022/05/13 01:46:27;;;;;;;15.98;8.10;;;19.70;97.40;;;;;;4960366;28;20034;-66
2022/05/13 01:48:56;;;;;;;13.90;7.97;;;19.80;96.80;;;;;;4957415;28;20029;-64
2022/05/13 01:51:24;;;;;;;13.07;7.22;;;19.80;96.70;;;;;;4968818;28;20078;-64
2022/05/13 01:53:52;;;;;;;11.90;6.80;;;20.00;96.20;;;;;;4995230;28;20064;-64
2022/05/13 01:56:19;;;;;;;15.13;6.80;;;20.00;95.10;;;;;;4977931;28;20019;-64
2022/05/13 01:58:47;;;;;;;9.77;6.15;;;20.10;95.60;;;;;;4961084;28;20070;-64
2022/05/13 02:01:14;;;;;;;8.85;6.38;;;20.10;95.00;;;;;;4952633;28;20492;-63
2022/05/13 02:03:45;;;;;;;8.38;5.97;;;20.20;95.30;;;;;;4954019;28;20123;-64
2022/05/13 02:06:22;;;;;;;5.15;3.78;;;20.30;95.00;;;;;;4978808;28;20054;-63
2022/05/13 02:08:53;;;;;;;8.68;4.13;;;20.40;93.80;;;;;;4969228;28;20766;-64
2022/05/13 02:11:22;;;;;;;8.98;4.60;;;20.40;94.20;;;;;;5017879;28;20467;-64
2022/05/13 02:13:51;;;;;;;6.80;3.78;;;20.50;93.90;;;;;;4965439;28;20039;-64
2022/05/13 02:16:19;;;;;;;7.80;4.70;;;20.50;94.50;;;;;;4952827;28;20028;-65
2022/05/13 02:18:46;;;;;;;8.85;4.18;;;20.60;94.50;;;;;;4957050;28;20032;-65
2022/05/13 02:21:14;;;;;;;5.32;2.80;;;20.60;93.50;;;;;;4973811;28;20139;-65
2022/05/13 02:23:42;;;;;;;4.95;3.22;;;20.50;93.50;;;;;;4970430;28;20491;-65
2022/05/13 02:26:12;;;;;;;5.63;2.58;;;20.50;93.40;;;;;;5016852;28;20082;-65
2022/05/13 02:28:40;;;;;;;4.03;2.95;;;20.50;93.60;;;;;;5000269;28;20039;-65
2022/05/13 02:31:08;;;;;;;6.82;3.38;;;20.60;93.60;;;;;;4976874;28;20555;-65
2022/05/13 02:33:36;;;;;;;5.38;3.33;;;20.60;93.30;;;;;;4969225;28;20070;-65
2022/05/13 02:36:05;;;;;;;6.10;4.00;;;20.70;92.80;;;;;;4967508;28;20023;-65
2022/05/13 02:38:33;;;;;;;6.45;3.63;;;20.80;93.40;;;;;;4961888;28;20034;-65
2022/05/13 02:41:14;;;;;;;8.52;3.38;;;20.80;93.00;;;;;;4975252;28;20027;-65
2022/05/13 02:43:45;;;;;;;4.97;3.35;;;20.80;92.80;;;;;;4966722;28;20051;-65
2022/05/13 02:46:18;;;;;;;7.40;3.40;;;20.90;92.30;;;;;;4965219;28;20030;-62
2022/05/13 02:48:47;;;;;;;5.93;3.08;;;20.80;92.90;;;;;;4963160;28;20111;-69
2022/05/13 02:51:15;;;;;;;5.22;3.30;;;20.90;92.70;;;;;;4971205;28;20035;-68
2022/05/13 02:53:42;;;;;;;7.32;3.30;;;20.90;92.50;;;;;;4960446;28;20039;-68
2022/05/13 02:56:10;;;;;;;5.55;3.72;;;20.90;93.00;;;;;;4966861;28;20045;-67
2022/05/13 02:58:39;;;;;;;4.65;3.40;;;21.00;92.90;;;;;;4977711;28;20038;-67
2022/05/13 03:01:09;;;;;;;8.02;3.95;;;21.00;92.70;;;;;;4985706;28;20049;-72
2022/05/13 03:03:39;;;;;;;5.22;3.40;;;21.10;92.80;;;;;;5048098;28;20080;-66
2022/05/13 03:06:06;;;;;;;4.47;3.35;;;21.10;92.40;;;;;;5046637;28;20355;-66
2022/05/13 03:08:34;;;;;;;6.13;3.25;;;21.10;92.50;;;;;;5004910;28;20033;-63
2022/05/13 03:11:03;;;;;;;4.65;3.03;;;21.20;92.70;;;;;;4995378;28;20062;-68
2022/05/13 03:13:31;;;;;;;4.53;3.53;;;21.30;92.50;;;;;;4990233;28;20039;-67
2022/05/13 03:16:19;;;;;;;8.82;4.03;;;21.40;92.70;;;;;;4979795;28;20070;-68
2022/05/13 03:18:55;;;;;;;7.10;4.28;;;21.50;91.80;;;;;;4993315;28;20034;-68
2022/05/13 03:21:23;;;;;;;8.15;3.67;;;21.50;91.90;;;;;;5031083;28;20017;-67
2022/05/13 03:23:51;;;;;;;7.75;3.75;;;21.60;92.30;;;;;;4996796;28;20012;-67
2022/05/13 03:26:20;;;;;;;6.80;3.20;;;21.60;92.10;;;;;;5016596;28;20430;-67
2022/05/13 03:28:48;;;;;;;5.20;3.25;;;21.70;92.50;;;;;;5027003;28;20039;-67
2022/05/13 03:31:16;;;;;;;5.47;3.72;;;21.80;91.80;;;;;;5033792;28;20030;-68
2022/05/13 03:33:43;;;;;;;6.43;3.50;;;21.70;90.50;;;;;;4977186;28;20030;-68
2022/05/13 03:36:12;;;;;;;4.35;3.28;;;21.70;91.20;;;;;;5015049;28;20052;-67
2022/05/13 03:38:40;;;;;;;5.70;3.90;;;21.80;91.60;;;;;;5026550;28;20041;-67
2022/05/13 03:41:08;;;;;;;5.43;3.55;;;21.80;91.30;;;;;;5048532;28;20035;-68
2022/05/13 03:43:36;;;;;;;5.45;3.47;;;21.90;91.30;;;;;;5000094;28;20019;-65
2022/05/13 03:46:03;;;;;;;5.47;3.42;;;22.00;91.10;;;;;;5047072;28;20478;-65
2022/05/13 03:48:30;;;;;;;7.35;3.95;;;21.90;90.60;;;;;;5025922;28;20032;-65
2022/05/13 03:50:57;;;;;;;6.65;4.38;;;22.00;90.80;;;;;;5010914;28;20018;-65
2022/05/13 03:53:25;;;;;;;9.30;4.78;;;22.10;91.10;;;;;;4971336;28;20062;-65
2022/05/13 03:55:52;;;;;;;7.03;4.45;;;22.10;91.10;;;;;;4964655;28;20047;-65
2022/05/13 03:58:19;;;;;;;9.07;5.55;;;22.20;90.70;;;;;;5031738;28;20477;-64
2022/05/13 04:00:47;;;;;;;5.82;4.68;;;22.30;90.70;;;;;;5017395;28;20047;-64
2022/05/13 04:03:14;;;;;;;6.35;4.43;;;22.40;91.00;;;;;;4994286;28;20034;-65
2022/05/13 04:11:12;;;;;;;5.03;3.78;;;22.80;90.30;;;;;;5020126;28;20054;-65
2022/05/13 04:16:24;;;;;;;8.52;4.25;;;22.50;87.20;;;;;;5003707;28;20034;-64
2022/05/13 04:18:53;;;;;;;8.02;3.80;;;22.60;88.80;;;;;;4982545;28;20022;-64
2022/05/13 04:21:28;;;;;;;11.75;4.25;;;22.50;86.40;;;;;;4978000;28;20027;-64
2022/05/13 04:23:58;;;;;;;4.30;3.47;;;22.40;88.80;;;;;;4953479;28;20027;-64
2022/05/13 04:26:26;;;;;;;7.57;3.22;;;22.30;88.20;;;;;;4954092;28;20050;-66
2022/05/13 04:28:55;;;;;;;5.28;2.53;;;22.20;89.30;;;;;;4970703;28;20023;-64
2022/05/13 04:31:25;;;;;;;9.77;4.30;;;22.20;89.50;;;;;;4984354;28;20497;-63
2022/05/13 04:33:54;;;;;;;8.88;3.42;;;22.10;89.40;;;;;;4990089;28;20506;-65
2022/05/13 04:36:22;;;;;;;9.57;3.20;;;22.10;89.10;;;;;;4962010;28;20502;-65
2022/05/13 04:38:49;;;;;;;6.78;3.40;;;22.10;89.10;;;;;;4953954;28;20160;-66
2022/05/13 04:44:04;;;;;;;5.57;2.75;;;22.10;89.20;;;;;;4959322;28;20068;-61
2022/05/13 04:46:33;;;;;;;9.48;3.20;;;22.00;88.20;;;;;;4982683;28;20386;-60
2022/05/13 04:49:00;;;;;;;11.82;3.88;;;22.00;88.10;;;;;;5008019;28;20456;-60
2022/05/13 04:51:28;;;;;;;7.70;3.60;;;21.90;88.90;;;;;;5055369;28;20021;-62
2022/05/13 04:53:56;;;;;;;8.32;3.70;;;21.80;88.90;;;;;;4984569;28;20401;-63
2022/05/13 04:56:25;;;;;;;10.50;4.47;;;21.70;90.00;;;;;;5022628;28;20052;-62
2022/05/13 04:58:53;;;;;;;6.85;3.45;;;21.60;89.90;;;;;;4999366;28;20025;-62
2022/05/13 05:01:22;;;;;;;5.60;4.03;;;21.50;89.60;;;;;;5054054;28;20094;-65
2022/05/13 05:03:52;;;;;;;6.15;3.53;;;21.50;90.40;;;;;;4986255;28;20044;-62
2022/05/13 05:06:21;;;;;;;6.88;3.45;;;21.50;90.70;;;;;;5026205;28;20027;-66
2022/05/13 05:08:49;;;;;;;8.18;3.17;;;21.50;90.50;;;;;;4972015;28;20395;-64
2022/05/13 05:11:17;;;;;;;6.35;3.13;;;21.50;90.40;;;;;;4965410;28;20028;-64
2022/05/13 05:13:48;;;;;;;4.43;2.13;;;21.50;90.40;;;;;;4973363;28;20048;-68
2022/05/13 05:16:16;;;;;;;5.50;2.35;;;21.60;90.20;;;;;;4972507;28;20054;-63
2022/05/13 05:18:44;;;;;;;4.03;2.08;;;21.60;90.20;;;;;;5033190;28;20468;-64
2022/05/13 05:21:12;;;;;;;3.47;1.80;;;21.50;90.20;;;;;;4999057;28;20083;-63
2022/05/13 05:23:42;;;;;;;2.35;1.40;;;21.50;90.20;;;;;;4954526;28;20677;-64
2022/05/13 05:26:11;;;;;;;3.67;1.70;;;21.40;90.00;;;;;;4968361;28;20034;-64
2022/05/13 05:28:38;;;;;;;3.05;1.52;;;21.40;90.20;;;;;;4981487;28;20109;-64
2022/05/13 05:31:06;;;;;;;3.42;1.65;;;21.30;90.40;;;;;;4975270;28;20035;-64
2022/05/13 05:33:36;;;;;;;7.38;1.42;;;21.30;90.40;;;;;;4987158;28;20026;-64
2022/05/13 05:36:03;;;;;;;3.40;1.38;;;21.30;90.50;;;;;;5028523;28;20102;-64
2022/05/13 05:38:30;;;;;;;2.83;1.48;;;21.20;90.80;;;;;;4961916;28;20034;-64
2022/05/13 05:41:00;;;;;;;3.78;1.42;;;21.20;90.90;;;;;;4962097;28;20051;-63
2022/05/13 05:43:28;;;;;;;3.00;1.60;;;21.10;90.70;;;;;;4951680;28;20042;-64
2022/05/13 05:45:57;;;;;;;2.25;1.10;;;21.10;90.80;;;;;;4962680;28;20065;-64
2022/05/13 05:48:25;;;;;;;3.60;1.35;;;21.00;90.60;;;;;;4960793;28;20084;-64
2022/05/13 05:50:55;;;;;;;1.73;0.85;;;21.00;90.90;;;;;;4962192;28;20052;-63
2022/05/13 05:59:00;;;;;;;1.75;0.90;;;20.80;90.50;;;;;;4973678;28;20038;-63
2022/05/13 06:01:29;;;;;;;2.67;0.98;;;20.80;90.80;;;;;;4956271;28;20050;-64
2022/05/13 06:03:56;;;;;;;2.90;1.17;;;20.70;91.00;;;;;;4959862;28;20023;-63
2022/05/13 06:06:24;;;;;;;4.60;0.95;;;20.70;91.10;;;;;;4970591;28;20054;-63
2022/05/13 06:08:55;;;;;;;4.85;1.20;;;20.70;91.20;;;;;;4997197;28;20493;-63
2022/05/13 06:11:25;;;;;;;2.50;1.00;;;20.50;91.60;;;;;;4984432;28;20098;-63
2022/05/13 06:13:54;;;;;;;4.05;1.42;;;20.50;91.40;;;;;;4981544;28;20450;-63
2022/05/13 06:16:23;;;;;;;3.83;1.20;;;20.50;91.50;;;;;;4971075;28;20490;-63
2022/05/13 06:18:51;;;;;;;2.50;1.05;;;20.40;91.80;;;;;;5040393;28;20032;-67
2022/05/13 06:21:18;;;;;;;2.17;1.13;;;20.30;92.10;;;;;;4968494;28;20043;-63
2022/05/13 06:23:45;;;;;;;3.15;1.20;;;20.30;92.40;;;;;;4955557;28;20018;-63
2022/05/13 06:26:12;;;;;;;4.30;1.15;;;20.20;92.40;;;;;;4963750;28;20121;-63
2022/05/13 06:28:40;;;;;;;6.03;1.40;;;20.10;92.50;;;;;;4971545;28;20703;-63
2022/05/13 06:31:07;;;;;;;1.88;1.10;;;20.00;92.70;;;;;;4951254;28;20035;-64
2022/05/13 06:33:35;;;;;;;2.00;1.00;;;20.00;92.80;;;;;;4962389;28;20043;-63
2022/05/13 06:36:02;;;;;;;1.88;1.27;;;19.90;92.90;;;;;;4954442;28;20058;-63
2022/05/13 06:38:30;;;;;;;3.25;1.20;;;19.90;93.10;;;;;;4959565;28;20103;-64
2022/05/13 06:40:57;;;;;;;2.35;1.20;;;19.80;93.10;;;;;;5004940;28;20490;-63
2022/05/13 06:43:25;;;;;;;2.95;1.17;;;19.80;93.10;;;;;;4969007;28;20027;-63
2022/05/13 06:45:52;;;;;;;7.20;1.40;;;19.70;93.30;;;;;;5006535;28;20023;-63
2022/05/13 06:48:20;;;;;;;4.45;1.45;;;19.60;93.60;;;;;;5022789;28;20022;-63
2022/05/13 06:50:47;;;;;;;4.20;2.15;;;19.60;93.70;;;;;;4959110;28;20023;-63
2022/05/13 06:53:16;;;;;;;2.20;1.10;;;19.50;93.60;;;;;;4964365;28;20050;-63
2022/05/13 06:55:44;;;;;;;6.07;1.30;;;19.40;93.80;;;;;;4975334;28;20022;-62
2022/05/13 06:58:12;;;;;;;2.10;1.10;;;19.30;94.10;;;;;;4982143;28;20707;-63
2022/05/13 07:00:40;;;;;;;2.47;1.13;;;19.30;94.00;;;;;;4979900;28;20054;-63
2022/05/13 07:03:10;;;;;;;2.92;1.13;;;19.20;94.10;;;;;;5048722;28;20027;-63
2022/05/13 07:05:38;;;;;;;3.38;1.00;;;19.10;94.30;;;;;;4993288;28;20027;-63
2022/05/13 07:08:05;;;;;;;3.80;1.40;;;19.10;94.50;;;;;;4987251;28;20421;-63
2022/05/13 07:10:32;;;;;;;5.03;1.60;;;19.00;94.50;;;;;;4971159;28;20023;-63
2022/05/13 07:13:04;;;;;;;4.85;1.30;;;19.00;94.80;;;;;;4969507;28;20035;-63
2022/05/13 07:15:31;;;;;;;5.15;1.60;;;18.90;94.70;;;;;;4969845;28;20027;-63
2022/05/13 07:17:58;;;;;;;6.65;1.42;;;18.90;94.90;;;;;;4969743;28;20464;-63
2022/05/13 07:20:27;;;;;;;2.70;1.33;;;18.70;94.80;;;;;;4969620;28;20109;-63
2022/05/13 07:22:58;;;;;;;4.07;1.92;;;18.70;94.90;;;;;;4969781;28;20031;-63
2022/05/13 07:25:26;;;;;;;5.32;2.40;;;18.60;94.80;;;;;;4968382;28;20030;-63
2022/05/13 07:27:53;;;;;;;5.63;2.13;;;18.50;94.90;;;;;;4955885;28;20419;-63
2022/05/13 07:30:21;;;;;;;3.17;1.80;;;18.40;95.00;;;;;;5044945;28;20028;-63
2022/05/13 07:32:48;;;;;;;5.10;2.05;;;18.40;95.40;;;;;;5071657;28;20036;-63
2022/05/13 07:35:15;;;;;;;3.60;1.70;;;18.30;95.20;;;;;;5071375;28;20021;-63
2022/05/13 07:37:43;;;;;;;9.45;1.58;;;18.10;95.20;;;;;;5071240;28;20043;-63
2022/05/13 07:42:57;;;;;;;3.08;2.05;;;18.00;95.80;;;;;;5071201;28;20032;-64
2022/05/13 07:45:24;;;;;;;5.32;2.15;;;17.90;95.80;;;;;;4955825;28;20027;-64
2022/05/13 07:47:51;;;;;;;4.93;2.25;;;17.90;96.30;;;;;;4961006;28;20062;-61
2022/05/13 07:50:19;;;;;;;4.13;1.75;;;17.80;96.10;;;;;;4969825;28;20566;-60
2022/05/13 07:52:47;;;;;;;6.20;2.63;;;17.80;96.20;;;;;;4969828;28;20055;-61
2022/05/13 07:55:15;;;;;;;9.85;2.90;;;17.70;96.30;;;;;;4969391;28;20029;-61
2022/05/13 07:57:44;;;;;;;6.43;2.72;;;17.70;96.50;;;;;;5002043;28;20026;-59
2022/05/13 08:00:26;;;;;;;5.85;2.83;;;17.60;96.50;;;;;;5007674;28;20026;-58
2022/05/13 08:02:55;;;;;;;10.98;3.25;;;17.60;96.40;;;;;;4950589;28;20033;-59
2022/05/13 08:05:23;;;;;;;5.35;3.38;;;17.50;96.30;;;;;;4955890;28;20092;-62
2022/05/13 08:08:05;;;;;;;7.78;3.45;;;17.40;96.60;;;;;;4956075;28;20661;-63
2022/05/13 08:10:32;;;;;;;6.28;2.97;;;17.50;96.90;;;;;;4953283;28;20242;-61
2022/05/13 08:13:00;;;;;;;9.07;3.63;;;17.40;97.10;;;;;;4947488;28;20050;-61
2022/05/13 08:15:27;;;;;;;7.80;3.60;;;17.40;97.00;;;;;;4961268;28;20031;-61
2022/05/13 08:17:55;;;;;;;8.18;3.70;;;17.40;97.10;;;;;;4961138;28;20134;-61
2022/05/13 08:20:22;;;;;;;9.23;3.38;;;17.40;97.20;;;;;;4947590;28;20486;-65
2022/05/13 08:22:50;;;;;;;6.22;3.63;;;17.30;97.20;;;;;;4963675;28;20084;-61
2022/05/13 08:25:17;;;;;;;9.65;3.40;;;17.30;97.30;;;;;;4950472;28;20545;-64
2022/05/13 08:27:44;;;;;;;9.35;4.55;;;17.30;97.40;;;;;;4953203;28;20023;-62
2022/05/13 08:30:12;;;;;;;7.45;3.83;;;17.30;97.70;;;;;;4950342;28;20027;-61
2022/05/13 08:32:39;;;;;;;6.70;4.07;;;17.40;97.80;;;;;;4951148;28;20043;-61
2022/05/13 08:35:07;;;;;;;17.33;4.32;;;17.50;98.10;;;;;;4953027;28;20023;-61
2022/05/13 08:37:49;;;;;;;8.05;4.47;;;17.50;98.10;;;;;;4966753;28;20030;-60
2022/05/13 08:40:56;;;;;;;10.10;4.80;;;17.60;98.20;;;;;;4957186;28;20031;-60
2022/05/13 08:43:27;;;;;;;9.10;4.40;;;17.70;98.40;;;;;;4944938;28;20411;-61
2022/05/13 08:45:55;;;;;;;11.10;5.38;;;17.80;98.60;;;;;;4951887;28;20521;-64
2022/05/13 08:48:35;;;;;;;6.88;4.13;;;17.90;98.70;;;;;;5004689;28;20025;-65
2022/05/13 08:51:14;;;;;;;11.10;4.70;;;18.00;98.70;;;;;;5068368;28;20369;-65
2022/05/13 08:54:16;;;;;;;8.50;4.07;;;18.10;98.80;;;;;;4966808;28;20039;-67
2022/05/13 08:56:53;;;;;;;8.88;4.70;;;18.10;98.60;;;;;;4968374;28;20030;-68
2022/05/13 08:59:38;;;;;;;11.35;4.95;;;18.20;98.70;;;;;;4968754;28;20113;-69
2022/05/13 09:02:31;;;;;;;12.90;5.10;;;18.20;98.30;;;;;;4968068;28;20051;-69
2022/05/13 09:05:06;;;;;;;8.90;4.57;;;18.20;98.40;;;;;;5025454;28;20024;-67
2022/05/13 09:07:34;;;;;;;11.77;4.72;;;18.10;98.10;;;;;;5017366;28;20055;-67
2022/05/13 09:10:06;;;;;;;10.48;4.63;;;18.00;98.00;;;;;;4954118;28;20031;-67
2022/05/13 09:12:52;;;;;;;10.57;4.57;;;17.90;97.80;;;;;;4956717;28;20046;-70
2022/05/13 09:15:38;;;;;;;7.85;4.25;;;17.80;97.70;;;;;;4954321;28;20501;-67
2022/05/13 09:18:35;;;;;;;9.45;4.72;;;17.80;97.80;;;;;;4959801;28;20039;-65
2022/05/13 09:21:16;;;;;;;11.27;5.07;;;17.70;97.90;;;;;;4963100;28;20084;-67
2022/05/13 09:23:44;;;;;;;12.88;5.88;;;17.70;98.40;;;;;;4947875;28;20031;-63
2022/05/13 09:26:15;;;;;;;11.80;6.28;;;17.70;98.70;;;;;;4958468;28;20757;-70
2022/05/13 09:29:10;;;;;;;14.18;6.35;;;17.80;98.90;;;;;;4960552;28;20026;-70
2022/05/13 09:31:44;;;;;;;17.20;7.88;;;17.80;99.00;;;;;;5003162;28;20033;-68
2022/05/13 09:34:34;;;;;;;17.52;7.25;;;17.80;98.90;;;;;;4953301;28;20062;-68
2022/05/13 09:37:11;;;;;;;18.02;6.72;;;17.80;99.20;;;;;;4958866;28;20030;-69
2022/05/13 09:39:47;;;;;;;17.13;6.75;;;17.80;98.90;;;;;;4963443;28;20495;-68
2022/05/13 09:42:27;;;;;;;13.68;6.75;;;17.70;98.80;;;;;;4959294;28;20054;-68
2022/05/13 09:45:17;;;;;;;12.43;6.97;;;17.70;98.70;;;;;;4976021;28;20037;-68
2022/05/13 09:47:59;;;;;;;10.82;6.55;;;17.60;98.20;;;;;;4949846;28;20031;-68
2022/05/13 09:50:32;;;;;;;10.65;6.13;;;17.50;98.20;;;;;;4963344;28;20031;-68
2022/05/13 09:53:04;;;;;;;10.35;5.57;;;17.30;98.10;;;;;;4957260;28;20048;-68
2022/05/13 09:55:38;;;;;;;9.55;5.22;;;17.30;98.20;;;;;;4958524;28;20020;-68
2022/05/13 09:58:20;;;;;;;12.80;5.55;;;17.20;98.10;;;;;;4951302;28;20534;-67
2022/05/13 10:00:56;;;;;;;17.60;6.05;;;17.10;98.10;;;;;;4960848;28;20096;-68
2022/05/13 10:03:24;;;;;;;16.08;7.57;;;17.00;98.70;;;;;;4965214;28;20027;-69
2022/05/13 10:06:02;;;;;;;27.40;14.10;;;17.10;98.80;;;;;;4966034;28;20054;-69
2022/05/13 10:08:31;;;;;;;25.42;11.27;;;17.10;98.90;;;;;;4965010;28;20743;-67
2022/05/13 10:14:03;;;;;;;22.70;8.20;;;17.20;99.10;;;;;;4948209;28;20054;-68
2022/05/13 10:16:44;;;;;;;21.98;8.57;;;17.30;99.10;;;;;;4952798;28;20019;-69
2022/05/13 10:19:25;;;;;;;27.55;10.60;;;17.30;99.10;;;;;;4958702;28;20153;-66
2022/05/13 10:22:01;;;;;;;28.10;9.65;;;17.40;99.20;;;;;;4959063;28;20112;-70
2022/05/13 10:24:58;;;;;;;23.23;8.85;;;17.40;99.10;;;;;;4966132;28;20039;-67
2022/05/13 10:27:34;;;;;;;25.33;9.13;;;17.40;99.20;;;;;;4973216;28;20144;-62
2022/05/13 10:30:15;;;;;;;24.30;8.48;;;17.40;99.20;;;;;;4958571;28;20022;-64
2022/05/13 10:33:16;;;;;;;17.02;7.88;;;17.40;99.10;;;;;;4958269;28;20405;-65
2022/05/13 10:35:57;;;;;;;22.45;8.93;;;17.40;99.10;;;;;;4972327;28;20031;-64
2022/05/13 10:38:39;;;;;;;26.92;10.07;;;17.40;99.10;;;;;;4962556;28;20031;-65
2022/05/13 10:41:59;;;;;;;27.15;10.40;;;17.50;99.60;;;;;;4956482;28;20030;-65
2022/05/13 10:44:26;;;;;;;25.42;9.82;;;17.60;99.90;;;;;;4995101;28;20061;-67
2022/05/13 10:46:55;;;;;;;29.83;10.05;;;17.70;99.90;;;;;;4955192;28;20051;-69
2022/05/13 10:49:32;;;;;;;28.55;10.27;;;17.70;99.90;;;;;;4961649;28;20065;-68
2022/05/13 10:52:35;;;;;;;24.10;9.43;;;17.70;99.90;;;;;;4952792;28;20027;-66
2022/05/13 10:55:34;;;;;;;26.63;8.73;;;17.70;99.80;;;;;;4948557;28;20044;-69
2022/05/13 10:58:28;;;;;;;23.63;9.50;;;17.80;99.80;;;;;;4960292;28;20035;-67
2022/05/13 11:01:18;;;;;;;30.00;10.23;;;17.70;99.70;;;;;;4953813;28;20062;-67
2022/05/13 11:04:08;;;;;;;19.38;8.48;;;17.80;99.70;;;;;;4952735;28;20114;-67
2022/05/13 11:06:47;;;;;;;23.35;8.93;;;17.80;99.70;;;;;;4964884;28;20023;-66
2022/05/13 11:09:20;;;;;;;20.15;7.28;;;17.80;99.70;;;;;;4955672;28;20488;-69
2022/05/13 11:11:47;;;;;;;22.10;8.48;;;17.80;99.60;;;;;;4955403;28;20029;-67
2022/05/13 11:14:52;;;;;;;22.38;8.93;;;17.70;99.60;;;;;;4952472;28;20035;-71
2022/05/13 11:17:34;;;;;;;20.58;9.38;;;17.80;99.70;;;;;;5006436;28;20403;-70
2022/05/13 11:20:18;;;;;;;24.40;9.40;;;17.80;99.70;;;;;;4978268;28;20028;-69
2022/05/13 11:23:12;;;;;;;23.88;9.35;;;17.90;99.70;;;;;;4991745;28;20034;-70
2022/05/13 11:26:40;;;;;;;26.38;9.00;;;17.90;99.70;;;;;;4963529;28;20105;-67
2022/05/13 11:29:30;;;;;;;21.13;9.52;;;17.80;99.70;;;;;;4937069;28;20050;-69
2022/05/13 11:32:49;;;;;;;33.50;10.90;;;17.90;99.70;;;;;;4916837;29;20066;-68
2022/05/13 11:35:44;;;;;;;30.38;10.93;;;17.90;99.70;;;;;;4955873;28;20046;-67
2022/05/13 11:38:19;;;;;;;34.70;10.85;;;18.00;99.80;;;;;;4948061;28;20028;-71
2022/05/13 11:41:08;;;;;;;33.58;11.00;;;18.00;99.80;;;;;;4958369;28;20041;-68
2022/05/13 11:44:04;;;;;;;27.27;10.18;;;17.90;99.70;;;;;;4948767;28;20035;-68
2022/05/13 11:46:48;;;;;;;31.00;10.75;;;18.00;99.70;;;;;;4953145;28;20377;-68
2022/05/13 11:49:46;;;;;;;62.58;29.40;;;18.00;99.90;;;;;;4957413;28;20034;-69
2022/05/13 11:52:27;;;;;;;43.97;20.13;;;18.00;99.80;;;;;;4956405;28;20878;-69
2022/05/13 11:55:19;;;;;;;51.13;19.50;;;18.00;99.90;;;;;;4951707;28;20046;-66
2022/05/13 11:57:53;;;;;;;38.88;14.80;;;18.00;99.90;;;;;;4955838;28;20161;-68
2022/05/13 12:00:33;;;;;;;42.28;14.73;;;18.10;99.90;;;;;;4959399;28;20118;-67
2022/05/13 12:03:10;;;;;;;36.75;13.13;;;18.10;99.90;;;;;;4951449;28;20058;-68
2022/05/13 12:05:49;;;;;;;39.75;12.52;;;18.10;99.90;;;;;;4951273;28;20069;-66
2022/05/13 12:08:22;;;;;;;33.15;11.85;;;18.10;99.90;;;;;;4955128;28;20043;-64
2022/05/13 12:11:00;;;;;;;44.78;13.07;;;18.20;99.90;;;;;;4954251;28;20018;-64
2022/05/13 12:14:15;;;;;;;40.85;14.00;;;18.20;99.90;;;;;;4956274;28;20042;-63
2022/05/13 12:17:11;;;;;;;43.90;14.30;;;18.20;99.90;;;;;;4952638;28;20528;-64
2022/05/13 12:20:10;;;;;;;34.50;12.77;;;18.20;99.90;;;;;;4957345;28;20020;-65
2022/05/13 12:23:06;;;;;;;36.08;12.93;;;18.10;99.80;;;;;;4956639;28;20089;-66
2022/05/13 12:25:36;;;;;;;34.90;12.95;;;18.10;99.70;;;;;;4952141;28;20035;-63
2022/05/13 12:28:11;;;;;;;27.85;10.57;;;18.10;99.70;;;;;;4957981;28;20055;-63
2022/05/13 12:30:50;;;;;;;32.58;11.45;;;18.10;99.60;;;;;;4955556;28;20106;-63
2022/05/13 12:39:13;;;;;;;29.58;11.30;;;18.00;99.50;;;;;;4955441;28;20069;-64
2022/05/13 12:41:43;;;;;;;;;;;17.90;99.50;;;;;;4959212;28;20185;-62
2022/05/13 12:44:32;;;;;;;32.38;11.25;;;17.90;99.60;;;;;;4965746;28;19910;-64
2022/05/13 12:47:15;;;;;;;31.27;11.05;;;17.90;99.60;;;;;;4958577;28;20173;-64
2022/05/13 12:50:01;;;;;;;33.95;13.13;;;17.90;99.60;;;;;;4953603;28;20077;-63
2022/05/13 12:52:29;;;;;;;32.80;12.07;;;17.90;99.60;;;;;;4965941;28;20034;-64
2022/05/13 12:55:05;;;;;;;37.15;13.40;;;17.90;99.60;;;;;;4968146;28;20033;-65
2022/05/13 12:57:40;;;;;;;40.90;12.93;;;17.90;99.70;;;;;;4950213;28;20082;-65
2022/05/13 13:00:12;;;;;;;;;;;18.00;99.80;;;;;;4949417;28;20030;-66
2022/05/13 13:02:40;;;;;;;;;;;18.00;99.90;;;;;;4954828;28;20017;-66
2022/05/13 13:05:08;;;;;;;;;;;18.00;99.80;;;;;;4955022;28;19917;-66
2022/05/13 13:07:37;;;;;;;;;;;18.00;99.80;;;;;;4949760;28;19914;-63
2022/05/13 13:10:03;;;;;;;;;;;18.00;99.80;;;;;;4951557;28;20537;-66
2022/05/13 13:12:41;;;;;;;;;;;18.00;99.70;;;;;;4954127;28;19918;-65
2022/05/13 13:15:13;;;;;;;;;;;18.00;99.70;;;;;;4962490;28;19918;-64
2022/05/13 13:17:43;;;;;;;;;;;18.10;99.80;;;;;;4962018;28;19910;-63
2022/05/13 13:20:12;;;;;;;;;;;18.10;99.80;;;;;;4968165;28;19996;-64
2022/05/13 13:22:43;;;;;;;;;;;18.10;99.80;;;;;;4956537;28;20298;-63
2022/05/13 13:25:29;;;;;;;;;;;18.10;99.70;;;;;;4962248;28;19910;-64
2022/05/13 13:27:58;;;;;;;;;;;18.10;99.70;;;;;;4966619;28;19911;-64
2022/05/13 13:30:25;;;;;;;;;;;18.10;99.70;;;;;;4960333;28;19933;-63
2022/05/13 13:32:53;;;;;;;;;;;18.10;99.70;;;;;;4964958;28;19914;-64
2022/05/13 13:35:38;;;;;;;;;;;18.10;99.70;;;;;;4958406;28;19929;-64
2022/05/13 13:38:07;;;;;;;;;;;18.10;99.60;;;;;;4957747;28;19911;-63
2022/05/13 13:40:36;;;;;;;;;;;18.00;99.50;;;;;;4949755;28;19917;-63
2022/05/13 13:43:13;;;;;;;;;;;18.00;99.50;;;;;;4948626;28;19960;-63
2022/05/13 13:45:42;;;;;;;;;;;18.00;99.50;;;;;;4952502;28;20282;-64